createdAt,value
2023-04-20T00:00:10.055Z,1408.2280
2023-04-20T00:00:21.087Z,1405.2629
2023-04-20T00:00:32.173Z,1412.6980
2023-04-20T00:00:43.272Z,1402.3110
2023-04-20T00:00:54.331Z,1397.9060
2023-04-20T00:01:05.412Z,1409.7150
2023-04-20T00:01:16.541Z,1400.8390
2023-04-20T00:01:27.604Z,1406.7440
2023-04-20T00:01:38.695Z,1405.2629
2023-04-20T00:01:49.836Z,1402.3110
2023-04-20T00:02:00.938Z,1399.3710
2023-04-20T00:02:12.180Z,1397.9060
2023-04-20T00:02:23.527Z,1396.4440
2023-04-20T00:02:34.868Z,1402.3110
2023-04-20T00:02:46.141Z,1396.4440
2023-04-20T00:02:57.493Z,1408.2280
2023-04-20T00:03:08.804Z,1402.3110
2023-04-20T00:03:20.150Z,1405.2629
2023-04-20T00:03:31.454Z,1414.1949
2023-04-20T00:03:42.701Z,1405.2629
2023-04-20T00:03:54.105Z,1411.2050
2023-04-20T00:04:05.645Z,1396.4440
2023-04-20T00:04:16.806Z,1396.4440
2023-04-20T00:04:27.860Z,1405.2629
2023-04-20T00:04:38.936Z,1402.3110
2023-04-20T00:04:49.995Z,1390.6250
2023-04-20T00:05:01.084Z,1406.7440
2023-04-20T00:05:12.232Z,1396.4440
2023-04-20T00:05:23.448Z,1399.3710
2023-04-20T00:05:34.561Z,1402.3110
2023-04-20T00:05:45.633Z,1402.3110
2023-04-20T00:05:56.731Z,1402.3110
2023-04-20T00:06:07.767Z,1403.7860
2023-04-20T00:06:18.818Z,1402.3110
2023-04-20T00:06:29.919Z,1399.3710
2023-04-20T00:06:41.050Z,1403.7860
2023-04-20T00:06:52.160Z,1403.7860
2023-04-20T00:07:03.182Z,1399.3710
2023-04-20T00:07:14.225Z,1393.5280
2023-04-20T00:07:25.298Z,1411.2050
2023-04-20T00:07:36.367Z,1409.7150
2023-04-20T00:07:47.414Z,1399.3710
2023-04-20T00:07:58.450Z,1405.2629
2023-04-20T00:08:09.518Z,1397.9060
2023-04-20T00:08:20.560Z,1406.7440
2023-04-20T00:08:31.665Z,1405.2629
2023-04-20T00:08:42.712Z,1414.1949
2023-04-20T00:08:53.756Z,1414.1949
2023-04-20T00:09:04.845Z,1405.2629
2023-04-20T00:09:16.191Z,1414.1949
2023-04-20T00:09:27.496Z,1403.7860
2023-04-20T00:09:38.620Z,1405.2629
2023-04-20T00:09:49.718Z,1403.7860
2023-04-20T00:10:00.766Z,1402.3110
2023-04-20T00:10:11.832Z,1402.3110
2023-04-20T00:10:22.893Z,1402.3110
2023-04-20T00:10:33.954Z,1405.2629
2023-04-20T00:10:45.014Z,1403.7860
2023-04-20T00:10:56.091Z,1400.8390
2023-04-20T00:11:07.121Z,1396.4440
2023-04-20T00:11:18.180Z,1408.2280
2023-04-20T00:11:29.218Z,1406.7440
2023-04-20T00:11:40.286Z,1409.7150
2023-04-20T00:11:51.358Z,1400.8390
2023-04-20T00:12:02.421Z,1406.7440
2023-04-20T00:12:13.457Z,1393.5280
2023-04-20T00:12:24.500Z,1405.2629
2023-04-20T00:12:35.603Z,1408.2280
2023-04-20T00:12:46.644Z,1402.3110
2023-04-20T00:12:57.727Z,1405.2629
2023-04-20T00:13:08.784Z,1396.4440
2023-04-20T00:13:19.862Z,1406.7440
2023-04-20T00:13:30.945Z,1409.7150
2023-04-20T00:13:42.020Z,1402.3110
2023-04-20T00:13:53.085Z,1394.9840
2023-04-20T00:14:04.146Z,1402.3110
2023-04-20T00:14:15.198Z,1403.7860
2023-04-20T00:14:26.242Z,1408.2280
2023-04-20T00:14:37.308Z,1406.7440
2023-04-20T00:14:48.375Z,1396.4440
2023-04-20T00:14:59.444Z,1405.2629
2023-04-20T00:15:10.534Z,1406.7440
2023-04-20T00:15:21.610Z,1406.7440
2023-04-20T00:15:32.684Z,1390.6250
2023-04-20T00:15:43.759Z,1405.2629
2023-04-20T00:15:54.826Z,1414.1949
2023-04-20T00:16:05.886Z,1400.8390
2023-04-20T00:16:16.973Z,1403.7860
2023-04-20T00:16:28.059Z,1405.2629
2023-04-20T00:16:39.208Z,1393.5280
2023-04-20T00:16:50.357Z,1406.7440
2023-04-20T00:17:01.519Z,1399.3710
2023-04-20T00:17:12.632Z,1408.2280
2023-04-20T00:17:23.698Z,1406.7440
2023-04-20T00:17:34.774Z,1411.2050
2023-04-20T00:17:45.846Z,1396.4440
2023-04-20T00:17:56.920Z,1414.1949
2023-04-20T00:18:08.022Z,1408.2280
2023-04-20T00:18:19.124Z,1387.7340
2023-04-20T00:18:30.200Z,1408.2280
2023-04-20T00:18:41.258Z,1409.7150
2023-04-20T00:18:52.300Z,1405.2629
2023-04-20T00:19:03.387Z,1406.7440
2023-04-20T00:19:14.520Z,1392.0750
2023-04-20T00:19:25.674Z,1396.4440
2023-04-20T00:19:36.734Z,1405.2629
2023-04-20T00:19:47.816Z,1403.7860
2023-04-20T00:19:58.855Z,1399.3710
2023-04-20T00:20:09.996Z,1396.4440
2023-04-20T00:20:21.043Z,1402.3110
2023-04-20T00:20:32.117Z,1402.3110
2023-04-20T00:20:43.174Z,1402.3110
2023-04-20T00:20:54.229Z,1402.3110
2023-04-20T00:21:05.277Z,1402.3110
2023-04-20T00:21:16.341Z,1403.7860
2023-04-20T00:21:27.427Z,1406.7440
2023-04-20T00:21:38.539Z,1392.0750
2023-04-20T00:21:49.566Z,1390.6250
2023-04-20T00:22:00.636Z,1393.5280
2023-04-20T00:22:11.698Z,1411.2050
2023-04-20T00:22:22.752Z,1408.2280
2023-04-20T00:22:33.831Z,1393.5280
2023-04-20T00:22:44.903Z,1399.3710
2023-04-20T00:22:55.969Z,1405.2629
2023-04-20T00:23:07.048Z,1409.7150
2023-04-20T00:23:18.108Z,1399.3710
2023-04-20T00:23:29.187Z,1405.2629
2023-04-20T00:23:40.259Z,1392.0750
2023-04-20T00:23:51.342Z,1387.7340
2023-04-20T00:24:02.376Z,1392.0750
2023-04-20T00:24:13.442Z,1397.9060
2023-04-20T00:24:24.516Z,1396.4440
2023-04-20T00:24:35.592Z,1392.0750
2023-04-20T00:24:46.625Z,1396.4440
2023-04-20T00:24:57.688Z,1400.8390
2023-04-20T00:25:08.744Z,1394.9840
2023-04-20T00:25:19.808Z,1402.3110
2023-04-20T00:25:30.876Z,1402.3110
2023-04-20T00:25:41.936Z,1393.5280
2023-04-20T00:25:53.015Z,1400.8390
2023-04-20T00:26:04.065Z,1389.1780
2023-04-20T00:26:15.126Z,1393.5280
2023-04-20T00:26:26.192Z,1405.2629
2023-04-20T00:26:44.234Z,1411.2050
2023-04-20T00:27:02.327Z,1392.0750
2023-04-20T00:27:13.393Z,1381.9880
2023-04-20T00:27:24.457Z,1379.1320
2023-04-20T00:27:35.516Z,1374.8710
2023-04-20T00:27:46.604Z,1376.2889
2023-04-20T00:27:57.665Z,1387.7340
2023-04-20T00:28:08.720Z,1384.8550
2023-04-20T00:28:19.763Z,1390.6250
2023-04-20T00:28:30.825Z,1390.6250
2023-04-20T00:28:41.878Z,1390.6250
2023-04-20T00:28:52.930Z,1392.0750
2023-04-20T00:29:04.006Z,1384.8550
2023-04-20T00:29:15.301Z,1396.4440
2023-04-20T00:29:26.573Z,1386.2930
2023-04-20T00:29:37.638Z,1390.6250
2023-04-20T00:29:48.706Z,1379.1320
2023-04-20T00:29:59.774Z,1379.1320
2023-04-20T00:30:10.852Z,1384.8550
2023-04-20T00:30:21.886Z,1393.5280
2023-04-20T00:30:33.009Z,1393.5280
2023-04-20T00:30:44.165Z,1383.4200
2023-04-20T00:30:55.251Z,1393.5280
2023-04-20T00:31:06.369Z,1392.0750
2023-04-20T00:31:17.530Z,1394.9840
2023-04-20T00:31:28.686Z,1397.9060
2023-04-20T00:31:39.874Z,1383.4200
2023-04-20T00:31:50.939Z,1397.9060
2023-04-20T00:32:02.004Z,1386.2930
2023-04-20T00:32:13.136Z,1394.9840
2023-04-20T00:32:24.173Z,1384.8550
2023-04-20T00:32:35.286Z,1379.1320
2023-04-20T00:32:46.485Z,1392.0750
2023-04-20T00:32:57.630Z,1383.4200
2023-04-20T00:33:08.830Z,1383.4200
2023-04-20T00:33:19.863Z,1384.8550
2023-04-20T00:33:30.930Z,1393.5280
2023-04-20T00:33:42.007Z,1399.3710
2023-04-20T00:33:53.090Z,1381.9880
2023-04-20T00:34:04.159Z,1389.1780
2023-04-20T00:34:15.237Z,1397.9060
2023-04-20T00:34:26.305Z,1390.6250
2023-04-20T00:34:37.355Z,1397.9060
2023-04-20T00:34:48.437Z,1390.6250
2023-04-20T00:34:59.507Z,1389.1780
2023-04-20T00:35:10.578Z,1390.6250
2023-04-20T00:35:21.641Z,1389.1780
2023-04-20T00:35:32.698Z,1383.4200
2023-04-20T00:35:43.768Z,1396.4440
2023-04-20T00:35:54.844Z,1394.9840
2023-04-20T00:36:05.878Z,1396.4440
2023-04-20T00:36:16.952Z,1392.0750
2023-04-20T00:36:28.032Z,1399.3710
2023-04-20T00:36:39.076Z,1387.7340
2023-04-20T00:36:50.158Z,1386.2930
2023-04-20T00:37:01.216Z,1393.5280
2023-04-20T00:37:12.273Z,1392.0750
2023-04-20T00:37:23.361Z,1393.5280
2023-04-20T00:37:34.463Z,1387.7340
2023-04-20T00:37:45.543Z,1397.9060
2023-04-20T00:37:56.597Z,1393.5280
2023-04-20T00:38:07.677Z,1393.5280
2023-04-20T00:38:18.726Z,1402.3110
2023-04-20T00:38:29.803Z,1387.7340
2023-04-20T00:38:40.875Z,1394.9840
2023-04-20T00:38:51.948Z,1393.5280
2023-04-20T00:39:03.015Z,1396.4440
2023-04-20T00:39:14.060Z,1393.5280
2023-04-20T00:39:25.134Z,1399.3710
2023-04-20T00:39:36.209Z,1393.5280
2023-04-20T00:39:47.302Z,1396.4440
2023-04-20T00:39:58.368Z,1384.8550
2023-04-20T00:40:09.402Z,1381.9880
2023-04-20T00:40:20.468Z,1393.5280
2023-04-20T00:40:31.527Z,1399.3710
2023-04-20T00:40:42.594Z,1390.6250
2023-04-20T00:40:53.657Z,1396.4440
2023-04-20T00:41:04.726Z,1408.2280
2023-04-20T00:41:15.782Z,1403.7860
2023-04-20T00:41:26.847Z,1399.3710
2023-04-20T00:41:37.910Z,1387.7340
2023-04-20T00:41:48.975Z,1392.0750
2023-04-20T00:42:00.035Z,1402.3110
2023-04-20T00:42:11.107Z,1403.7860
2023-04-20T00:42:22.222Z,1403.7860
2023-04-20T00:42:33.279Z,1405.2629
2023-04-20T00:42:44.347Z,1396.4440
2023-04-20T00:42:55.447Z,1396.4440
2023-04-20T00:43:06.475Z,1402.3110
2023-04-20T00:43:17.526Z,1405.2629
2023-04-20T00:43:28.598Z,1402.3110
2023-04-20T00:43:39.646Z,1403.7860
2023-04-20T00:43:50.693Z,1402.3110
2023-04-20T00:44:01.756Z,1399.3710
2023-04-20T00:44:12.839Z,1405.2629
2023-04-20T00:44:23.907Z,1411.2050
2023-04-20T00:44:34.963Z,1403.7860
2023-04-20T00:44:46.028Z,1405.2629
2023-04-20T00:44:57.087Z,1411.2050
2023-04-20T00:45:08.162Z,1406.7440
2023-04-20T00:45:19.243Z,1403.7860
2023-04-20T00:45:30.291Z,1409.7150
2023-04-20T00:45:41.359Z,1409.7150
2023-04-20T00:45:52.472Z,1399.3710
2023-04-20T00:46:03.600Z,1411.2050
2023-04-20T00:46:14.724Z,1399.3710
2023-04-20T00:46:25.946Z,1400.8390
2023-04-20T00:46:37.156Z,1411.2050
2023-04-20T00:46:48.301Z,1406.7440
2023-04-20T00:46:59.327Z,1406.7440
2023-04-20T00:47:10.399Z,1405.2629
2023-04-20T00:47:21.499Z,1411.2050
2023-04-20T00:47:32.603Z,1414.1949
2023-04-20T00:47:43.755Z,1408.2280
2023-04-20T00:47:54.837Z,1402.3110
2023-04-20T00:48:06.017Z,1405.2629
2023-04-20T00:48:17.122Z,1417.1970
2023-04-20T00:48:28.168Z,1412.6980
2023-04-20T00:48:39.227Z,1411.2050
2023-04-20T00:48:50.283Z,1418.7040
2023-04-20T00:49:01.359Z,1415.6949
2023-04-20T00:49:12.415Z,1405.2629
2023-04-20T00:49:23.486Z,1417.1970
2023-04-20T00:49:34.590Z,1417.1970
2023-04-20T00:49:45.672Z,1412.6980
2023-04-20T00:49:56.734Z,1405.2629
2023-04-20T00:50:07.805Z,1417.1970
2023-04-20T00:50:18.852Z,1405.2629
2023-04-20T00:50:29.876Z,1417.1970
2023-04-20T00:50:40.936Z,1414.1949
2023-04-20T00:50:51.975Z,1420.2130
2023-04-20T00:51:03.057Z,1420.2130
2023-04-20T00:51:14.097Z,1403.7860
2023-04-20T00:51:25.168Z,1403.7860
2023-04-20T00:51:36.241Z,1411.2050
2023-04-20T00:51:47.322Z,1412.6980
2023-04-20T00:51:58.384Z,1408.2280
2023-04-20T00:52:09.451Z,1421.7250
2023-04-20T00:52:20.517Z,1418.7040
2023-04-20T00:52:31.611Z,1420.2130
2023-04-20T00:52:42.681Z,1424.7600
2023-04-20T00:52:53.746Z,1415.6949
2023-04-20T00:53:04.819Z,1408.2280
2023-04-20T00:53:15.884Z,1417.1970
2023-04-20T00:53:26.925Z,1405.2629
2023-04-20T00:53:38.008Z,1411.2050
2023-04-20T00:53:49.082Z,1411.2050
2023-04-20T00:54:00.155Z,1423.2410
2023-04-20T00:54:11.215Z,1420.2130
2023-04-20T00:54:22.275Z,1423.2410
2023-04-20T00:54:33.357Z,1420.2130
2023-04-20T00:54:44.406Z,1408.2280
2023-04-20T00:54:55.492Z,1409.7150
2023-04-20T00:55:06.562Z,1406.7440
2023-04-20T00:55:17.592Z,1420.2130
2023-04-20T00:55:28.668Z,1414.1949
2023-04-20T00:55:39.720Z,1408.2280
2023-04-20T00:55:50.777Z,1420.2130
2023-04-20T00:56:01.832Z,1411.2050
2023-04-20T00:56:12.889Z,1423.2410
2023-04-20T00:56:23.987Z,1414.1949
2023-04-20T00:56:35.020Z,1426.2820
2023-04-20T00:56:46.094Z,1406.7440
2023-04-20T00:56:57.143Z,1408.2280
2023-04-20T00:57:08.225Z,1411.2050
2023-04-20T00:57:19.290Z,1423.2410
2023-04-20T00:57:30.336Z,1411.2050
2023-04-20T00:57:41.461Z,1415.6949
2023-04-20T00:57:52.528Z,1417.1970
2023-04-20T00:58:03.622Z,1403.7860
2023-04-20T00:58:14.665Z,1420.2130
2023-04-20T00:58:25.733Z,1421.7250
2023-04-20T00:58:36.790Z,1414.1949
2023-04-20T00:58:47.860Z,1423.2410
2023-04-20T00:58:58.928Z,1427.8080
2023-04-20T00:59:09.981Z,1424.7600
2023-04-20T00:59:21.031Z,1421.7250
2023-04-20T00:59:32.062Z,1411.2050
2023-04-20T00:59:43.166Z,1424.7600
2023-04-20T00:59:54.235Z,1423.2410
2023-04-20T01:00:05.307Z,1423.2410
2023-04-20T01:00:16.373Z,1427.8080
2023-04-20T01:00:27.511Z,1429.3361
2023-04-20T01:00:38.566Z,1421.7250
2023-04-20T01:00:49.648Z,1426.2820
2023-04-20T01:01:00.702Z,1424.7600
2023-04-20T01:01:11.818Z,1420.2130
2023-04-20T01:01:22.891Z,1424.7600
2023-04-20T01:01:33.956Z,1429.3361
2023-04-20T01:01:45.109Z,1429.3361
2023-04-20T01:01:56.257Z,1426.2820
2023-04-20T01:02:07.473Z,1427.8080
2023-04-20T01:02:18.621Z,1414.1949
2023-04-20T01:02:29.898Z,1429.3361
2023-04-20T01:02:41.124Z,1426.2820
2023-04-20T01:02:52.332Z,1415.6949
2023-04-20T01:03:03.661Z,1429.3361
2023-04-20T01:03:15.275Z,1411.2050
2023-04-20T01:03:26.515Z,1417.1970
2023-04-20T01:03:37.723Z,1411.2050
2023-04-20T01:03:49.011Z,1424.7600
2023-04-20T01:04:00.388Z,1426.2820
2023-04-20T01:04:11.773Z,1429.3361
2023-04-20T01:04:23.048Z,1417.1970
2023-04-20T01:04:34.228Z,1432.4030
2023-04-20T01:04:45.254Z,1427.8080
2023-04-20T01:04:56.334Z,1420.2130
2023-04-20T01:05:07.417Z,1429.3361
2023-04-20T01:05:18.475Z,1420.2130
2023-04-20T01:05:29.535Z,1427.8080
2023-04-20T01:05:40.605Z,1414.1949
2023-04-20T01:05:51.666Z,1417.1970
2023-04-20T01:06:02.695Z,1415.6949
2023-04-20T01:06:13.754Z,1420.2130
2023-04-20T01:06:24.828Z,1420.2130
2023-04-20T01:06:35.881Z,1421.7250
2023-04-20T01:06:46.946Z,1432.4030
2023-04-20T01:06:58.013Z,1426.2820
2023-04-20T01:07:09.097Z,1414.1949
2023-04-20T01:07:20.167Z,1432.4030
2023-04-20T01:07:31.224Z,1430.8680
2023-04-20T01:07:42.287Z,1420.2130
2023-04-20T01:07:53.377Z,1417.1970
2023-04-20T01:08:04.483Z,1426.2820
2023-04-20T01:08:15.536Z,1424.7600
2023-04-20T01:08:26.601Z,1412.6980
2023-04-20T01:08:37.696Z,1429.3361
2023-04-20T01:08:48.767Z,1427.8080
2023-04-20T01:08:59.814Z,1429.3361
2023-04-20T01:09:10.864Z,1414.1949
2023-04-20T01:09:21.919Z,1429.3361
2023-04-20T01:09:32.996Z,1426.2820
2023-04-20T01:09:44.072Z,1427.8080
2023-04-20T01:09:55.132Z,1426.2820
2023-04-20T01:10:06.203Z,1421.7250
2023-04-20T01:10:17.253Z,1423.2410
2023-04-20T01:10:28.335Z,1429.3361
2023-04-20T01:10:39.425Z,1432.4030
2023-04-20T01:10:50.472Z,1415.6949
2023-04-20T01:11:01.514Z,1432.4030
2023-04-20T01:11:12.599Z,1427.8080
2023-04-20T01:11:23.661Z,1421.7250
2023-04-20T01:11:34.725Z,1432.4030
2023-04-20T01:11:45.781Z,1423.2410
2023-04-20T01:11:56.891Z,1423.2410
2023-04-20T01:12:07.919Z,1426.2820
2023-04-20T01:12:19.003Z,1414.1949
2023-04-20T01:12:30.076Z,1420.2130
2023-04-20T01:12:41.137Z,1432.4030
2023-04-20T01:12:52.211Z,1417.1970
2023-04-20T01:13:03.313Z,1423.2410
2023-04-20T01:13:14.382Z,1417.1970
2023-04-20T01:13:25.453Z,1429.3361
2023-04-20T01:13:36.478Z,1432.4030
2023-04-20T01:13:47.545Z,1432.4030
2023-04-20T01:13:58.631Z,1427.8080
2023-04-20T01:14:09.698Z,1423.2410
2023-04-20T01:14:20.756Z,1429.3361
2023-04-20T01:14:31.814Z,1429.3361
2023-04-20T01:14:42.870Z,1430.8680
2023-04-20T01:14:53.946Z,1421.7250
2023-04-20T01:15:05.030Z,1432.4030
2023-04-20T01:15:16.097Z,1426.2820
2023-04-20T01:15:27.160Z,1412.6980
2023-04-20T01:15:38.252Z,1429.3361
2023-04-20T01:15:49.394Z,1421.7250
2023-04-20T01:16:00.617Z,1417.1970
2023-04-20T01:16:11.810Z,1429.3361
2023-04-20T01:16:23.007Z,1418.7040
2023-04-20T01:16:34.234Z,1414.1949
2023-04-20T01:16:45.318Z,1424.7600
2023-04-20T01:16:56.388Z,1429.3361
2023-04-20T01:17:07.450Z,1418.7040
2023-04-20T01:17:18.567Z,1429.3361
2023-04-20T01:17:29.655Z,1426.2820
2023-04-20T01:17:40.780Z,1424.7600
2023-04-20T01:17:51.920Z,1420.2130
2023-04-20T01:18:03.050Z,1417.1970
2023-04-20T01:18:14.118Z,1417.1970
2023-04-20T01:18:25.184Z,1421.7250
2023-04-20T01:18:36.252Z,1429.3361
2023-04-20T01:18:47.457Z,1426.2820
2023-04-20T01:18:58.539Z,1424.7600
2023-04-20T01:19:09.589Z,1429.3361
2023-04-20T01:19:20.654Z,1411.2050
2023-04-20T01:19:31.729Z,1429.3361
2023-04-20T01:19:42.775Z,1417.1970
2023-04-20T01:19:53.874Z,1418.7040
2023-04-20T01:20:04.927Z,1424.7600
2023-04-20T01:20:15.994Z,1426.2820
2023-04-20T01:20:27.076Z,1427.8080
2023-04-20T01:20:38.163Z,1430.8680
2023-04-20T01:20:49.238Z,1429.3361
2023-04-20T01:21:00.278Z,1429.3361
2023-04-20T01:21:11.324Z,1432.4030
2023-04-20T01:21:22.391Z,1420.2130
2023-04-20T01:21:33.456Z,1429.3361
2023-04-20T01:21:44.514Z,1421.7250
2023-04-20T01:21:55.584Z,1417.1970
2023-04-20T01:22:06.623Z,1417.1970
2023-04-20T01:22:17.684Z,1418.7040
2023-04-20T01:22:28.756Z,1424.7600
2023-04-20T01:22:39.798Z,1418.7040
2023-04-20T01:22:50.897Z,1418.7040
2023-04-20T01:23:01.948Z,1415.6949
2023-04-20T01:23:13.043Z,1433.9420
2023-04-20T01:23:24.094Z,1426.2820
2023-04-20T01:23:35.176Z,1426.2820
2023-04-20T01:23:46.233Z,1424.7600
2023-04-20T01:23:57.290Z,1429.3361
2023-04-20T01:24:08.356Z,1429.3361
2023-04-20T01:24:19.425Z,1432.4030
2023-04-20T01:24:30.508Z,1435.4840
2023-04-20T01:24:41.570Z,1420.2130
2023-04-20T01:24:52.671Z,1433.9420
2023-04-20T01:25:03.726Z,1429.3361
2023-04-20T01:25:14.817Z,1430.8680
2023-04-20T01:25:25.887Z,1433.9420
2023-04-20T01:25:36.922Z,1418.7040
2023-04-20T01:25:47.969Z,1427.8080
2023-04-20T01:25:59.047Z,1432.4030
2023-04-20T01:26:10.093Z,1435.4840
2023-04-20T01:26:21.172Z,1430.8680
2023-04-20T01:26:32.235Z,1432.4030
2023-04-20T01:26:43.292Z,1423.2410
2023-04-20T01:26:54.361Z,1430.8680
2023-04-20T01:27:05.401Z,1432.4030
2023-04-20T01:27:16.453Z,1427.8080
2023-04-20T01:27:27.538Z,1417.1970
2023-04-20T01:27:38.592Z,1432.4030
2023-04-20T01:27:49.674Z,1429.3361
2023-04-20T01:28:00.740Z,1412.6980
2023-04-20T01:28:11.846Z,1432.4030
2023-04-20T01:28:22.939Z,1432.4030
2023-04-20T01:28:40.960Z,1421.7250
2023-04-20T01:28:52.078Z,1423.2410
2023-04-20T01:29:03.876Z,1424.7600
2023-04-20T01:29:15.047Z,1423.2410
2023-04-20T01:29:26.112Z,1421.7250
2023-04-20T01:29:37.177Z,1418.7040
2023-04-20T01:29:48.246Z,1423.2410
2023-04-20T01:29:59.309Z,1429.3361
2023-04-20T01:30:10.365Z,1423.2410
2023-04-20T01:30:21.438Z,1408.2280
2023-04-20T01:30:32.502Z,1412.6980
2023-04-20T01:30:43.575Z,1421.7250
2023-04-20T01:30:54.615Z,1414.1949
2023-04-20T01:31:05.738Z,1409.7150
2023-04-20T01:31:16.846Z,1414.1949
2023-04-20T01:31:28.048Z,1414.1949
2023-04-20T01:31:39.220Z,1430.8680
2023-04-20T01:31:50.391Z,1427.8080
2023-04-20T01:32:01.546Z,1417.1970
2023-04-20T01:32:12.607Z,1408.2280
2023-04-20T01:32:23.708Z,1411.2050
2023-04-20T01:32:34.859Z,1409.7150
2023-04-20T01:32:46.026Z,1421.7250
2023-04-20T01:32:57.092Z,1429.3361
2023-04-20T01:33:08.186Z,1423.2410
2023-04-20T01:33:19.276Z,1411.2050
2023-04-20T01:33:30.326Z,1421.7250
2023-04-20T01:33:41.390Z,1426.2820
2023-04-20T01:33:52.449Z,1426.2820
2023-04-20T01:34:03.493Z,1426.2820
2023-04-20T01:34:14.564Z,1429.3361
2023-04-20T01:34:25.602Z,1424.7600
2023-04-20T01:34:36.661Z,1424.7600
2023-04-20T01:34:47.744Z,1409.7150
2023-04-20T01:34:58.815Z,1423.2410
2023-04-20T01:35:09.887Z,1415.6949
2023-04-20T01:35:20.944Z,1414.1949
2023-04-20T01:35:31.960Z,1414.1949
2023-04-20T01:35:43.028Z,1417.1970
2023-04-20T01:35:54.101Z,1424.7600
2023-04-20T01:36:05.181Z,1417.1970
2023-04-20T01:36:16.270Z,1418.7040
2023-04-20T01:36:27.331Z,1417.1970
2023-04-20T01:36:38.390Z,1411.2050
2023-04-20T01:36:49.442Z,1406.7440
2023-04-20T01:37:00.484Z,1420.2130
2023-04-20T01:37:11.543Z,1420.2130
2023-04-20T01:37:22.593Z,1409.7150
2023-04-20T01:37:33.662Z,1417.1970
2023-04-20T01:37:44.747Z,1411.2050
2023-04-20T01:37:55.782Z,1420.2130
2023-04-20T01:38:06.843Z,1423.2410
2023-04-20T01:38:17.929Z,1415.6949
2023-04-20T01:38:29.016Z,1423.2410
2023-04-20T01:38:40.078Z,1424.7600
2023-04-20T01:38:51.139Z,1417.1970
2023-04-20T01:39:02.188Z,1426.2820
2023-04-20T01:39:13.271Z,1417.1970
2023-04-20T01:39:24.406Z,1414.1949
2023-04-20T01:39:35.518Z,1420.2130
2023-04-20T01:39:46.689Z,1418.7040
2023-04-20T01:39:57.825Z,1423.2410
2023-04-20T01:40:08.890Z,1426.2820
2023-04-20T01:40:19.967Z,1409.7150
2023-04-20T01:40:31.023Z,1418.7040
2023-04-20T01:40:42.080Z,1423.2410
2023-04-20T01:40:53.158Z,1415.6949
2023-04-20T01:41:04.217Z,1412.6980
2023-04-20T01:41:15.285Z,1415.6949
2023-04-20T01:41:26.349Z,1420.2130
2023-04-20T01:41:37.416Z,1411.2050
2023-04-20T01:41:48.482Z,1420.2130
2023-04-20T01:41:59.541Z,1414.1949
2023-04-20T01:42:10.612Z,1414.1949
2023-04-20T01:42:21.674Z,1417.1970
2023-04-20T01:42:32.752Z,1417.1970
2023-04-20T01:42:43.798Z,1418.7040
2023-04-20T01:42:54.856Z,1421.7250
2023-04-20T01:43:05.904Z,1408.2280
2023-04-20T01:43:16.968Z,1417.1970
2023-04-20T01:43:28.080Z,1427.8080
2023-04-20T01:43:39.158Z,1420.2130
2023-04-20T01:43:50.205Z,1423.2410
2023-04-20T01:44:01.280Z,1411.2050
2023-04-20T01:44:12.335Z,1420.2130
2023-04-20T01:44:23.401Z,1418.7040
2023-04-20T01:44:34.463Z,1414.1949
2023-04-20T01:44:45.513Z,1420.2130
2023-04-20T01:44:56.573Z,1415.6949
2023-04-20T01:45:07.662Z,1420.2130
2023-04-20T01:45:18.709Z,1405.2629
2023-04-20T01:45:29.789Z,1420.2130
2023-04-20T01:45:40.859Z,1412.6980
2023-04-20T01:45:51.936Z,1408.2280
2023-04-20T01:46:03.015Z,1405.2629
2023-04-20T01:46:14.085Z,1414.1949
2023-04-20T01:46:25.203Z,1408.2280
2023-04-20T01:46:36.326Z,1405.2629
2023-04-20T01:46:47.401Z,1406.7440
2023-04-20T01:46:58.510Z,1411.2050
2023-04-20T01:47:09.626Z,1412.6980
2023-04-20T01:47:20.646Z,1415.6949
2023-04-20T01:47:31.720Z,1411.2050
2023-04-20T01:47:42.816Z,1411.2050
2023-04-20T01:47:54.016Z,1414.1949
2023-04-20T01:48:05.301Z,1417.1970
2023-04-20T01:48:16.378Z,1414.1949
2023-04-20T01:48:27.487Z,1417.1970
2023-04-20T01:48:38.564Z,1411.2050
2023-04-20T01:48:49.610Z,1411.2050
2023-04-20T01:49:00.671Z,1417.1970
2023-04-20T01:49:11.733Z,1417.1970
2023-04-20T01:49:22.799Z,1411.2050
2023-04-20T01:49:33.881Z,1414.1949
2023-04-20T01:49:44.932Z,1402.3110
2023-04-20T01:49:56.005Z,1411.2050
2023-04-20T01:50:07.046Z,1411.2050
2023-04-20T01:50:18.109Z,1414.1949
2023-04-20T01:50:29.158Z,1414.1949
2023-04-20T01:50:40.222Z,1408.2280
2023-04-20T01:50:51.288Z,1411.2050
2023-04-20T01:51:02.344Z,1417.1970
2023-04-20T01:51:13.400Z,1406.7440
2023-04-20T01:51:24.461Z,1411.2050
2023-04-20T01:51:35.492Z,1406.7440
2023-04-20T01:51:46.578Z,1417.1970
2023-04-20T01:51:57.590Z,1411.2050
2023-04-20T01:52:08.662Z,1411.2050
2023-04-20T01:52:19.735Z,1414.1949
2023-04-20T01:52:30.810Z,1414.1949
2023-04-20T01:52:41.874Z,1414.1949
2023-04-20T01:52:52.929Z,1417.1970
2023-04-20T01:53:04.022Z,1409.7150
2023-04-20T01:53:15.071Z,1414.1949
2023-04-20T01:53:26.144Z,1409.7150
2023-04-20T01:53:37.258Z,1418.7040
2023-04-20T01:53:48.285Z,1411.2050
2023-04-20T01:53:59.326Z,1415.6949
2023-04-20T01:54:10.379Z,1399.3710
2023-04-20T01:54:21.453Z,1409.7150
2023-04-20T01:54:32.517Z,1406.7440
2023-04-20T01:54:43.564Z,1403.7860
2023-04-20T01:54:54.608Z,1406.7440
2023-04-20T01:55:05.669Z,1408.2280
2023-04-20T01:55:18.335Z,1409.7150
2023-04-20T01:55:30.727Z,1396.4440
2023-04-20T01:55:41.780Z,1396.4440
2023-04-20T01:55:52.847Z,1415.6949
2023-04-20T01:56:03.888Z,1412.6980
2023-04-20T01:56:14.964Z,1406.7440
2023-04-20T01:56:26.024Z,1400.8390
2023-04-20T01:56:37.106Z,1408.2280
2023-04-20T01:56:48.159Z,1408.2280
2023-04-20T01:56:59.240Z,1414.1949
2023-04-20T01:57:10.288Z,1411.2050
2023-04-20T01:57:21.347Z,1405.2629
2023-04-20T01:57:32.420Z,1412.6980
2023-04-20T01:57:43.482Z,1414.1949
2023-04-20T01:57:54.557Z,1399.3710
2023-04-20T01:58:05.604Z,1396.4440
2023-04-20T01:58:16.724Z,1402.3110
2023-04-20T01:58:27.745Z,1397.9060
2023-04-20T01:58:38.875Z,1405.2629
2023-04-20T01:58:49.899Z,1411.2050
2023-04-20T01:59:00.979Z,1411.2050
2023-04-20T01:59:12.041Z,1411.2050
2023-04-20T01:59:23.084Z,1406.7440
2023-04-20T01:59:34.150Z,1402.3110
2023-04-20T01:59:45.238Z,1409.7150
2023-04-20T01:59:56.298Z,1408.2280
2023-04-20T02:00:07.366Z,1411.2050
2023-04-20T02:00:18.425Z,1411.2050
2023-04-20T02:00:29.494Z,1406.7440
2023-04-20T02:00:40.576Z,1408.2280
2023-04-20T02:00:51.722Z,1400.8390
2023-04-20T02:01:02.903Z,1411.2050
2023-04-20T02:01:14.118Z,1393.5280
2023-04-20T02:01:25.256Z,1406.7440
2023-04-20T02:01:36.418Z,1393.5280
2023-04-20T02:01:47.505Z,1390.6250
2023-04-20T02:01:58.654Z,1399.3710
2023-04-20T02:02:09.878Z,1399.3710
2023-04-20T02:02:20.995Z,1408.2280
2023-04-20T02:02:32.301Z,1402.3110
2023-04-20T02:02:43.855Z,1405.2629
2023-04-20T02:02:55.286Z,1409.7150
2023-04-20T02:03:06.645Z,1405.2629
2023-04-20T02:03:18.143Z,1390.6250
2023-04-20T02:03:29.602Z,1399.3710
2023-04-20T02:03:41.435Z,1396.4440
2023-04-20T02:03:53.086Z,1390.6250
2023-04-20T02:04:04.753Z,1393.5280
2023-04-20T02:04:15.905Z,1396.4440
2023-04-20T02:04:26.938Z,1402.3110
2023-04-20T02:04:38.020Z,1406.7440
2023-04-20T02:04:49.070Z,1396.4440
2023-04-20T02:05:00.158Z,1399.3710
2023-04-20T02:05:11.251Z,1399.3710
2023-04-20T02:05:22.285Z,1402.3110
2023-04-20T02:05:33.346Z,1403.7860
2023-04-20T02:05:44.405Z,1403.7860
2023-04-20T02:05:55.488Z,1397.9060
2023-04-20T02:06:06.600Z,1393.5280
2023-04-20T02:06:17.665Z,1394.9840
2023-04-20T02:06:28.742Z,1393.5280
2023-04-20T02:06:39.812Z,1393.5280
2023-04-20T02:06:50.889Z,1396.4440
2023-04-20T02:07:01.991Z,1399.3710